Latest Coastal Weather Observations for Newcastle Nobbys

IDN60701

Issued at 4:51 pm EST Wednesday 26 July 2017 (issued every 10 minutes, with the page automatically refreshed every 10 minutes)

About coastal observations | Map of coastal stations | Coastal observations for NSW | Marine services | Other Formats
Station Details ID: 061055 Name: NEWCASTLE NOBBYS SIGNAL STATION AWS Lat: -32.92 Lon: 151.80 Height: 33.0 m
Data from the previous 72 hours. | See also: Recent months at Newcastle Nobbys
Date/Time
EST
Temp
°C
Wind Pressure Rain since
9am
mm
Weather Cloud Vis
km
Sea
Height
m
Swell
Dir  Spd
kts
Gust
kts
hPa Trend Height
m
Period
s
Dir
26/04:30pm 21.5 WSW 12 17 - - 0.0 - - - - - - -
26/04:00pm 22.4 WSW 9 16 - - 0.0 - - - - - - -
26/03:30pm 22.4 WSW 14 22 - - 0.0 - - - - - - -
26/03:00pm 23.2 WSW 13 21 - - 0.0 - - - - - - -
26/02:37pm 23.3 W 17 35 - - 0.0 - - - - - - -
26/02:30pm 23.3 W 17 22 - - 0.0 - - - - - - -
26/02:00pm 23.5 W 19 27 - - 0.0 - - - - - - -
26/01:30pm 23.4 W 16 20 - - 0.0 - - - - - - -
26/01:00pm 22.9 WNW 14 22 - - 0.0 - - - - - - -
26/12:30pm 22.5 WNW 17 21 - - 0.0 - - - - - - -
26/12:00pm 21.7 NW 16 23 - - 0.0 - - - - - - -
26/11:30am 21.4 WNW 16 21 - - 0.0 - - - - - - -
26/11:00am 20.8 WNW 13 18 - - 0.0 - - - - - - -
26/10:30am 20.1 WNW 16 21 - - 0.0 - - - - - - -
26/10:00am 19.4 WNW 17 25 - - 0.0 - - - - - - -
26/09:30am 18.7 WNW 13 20 - - 0.0 - - - - - - -
26/09:00am 17.6 WNW 10 17 - - 0.0 - - - - - - -
26/08:30am 16.6 WNW 11 16 - - 0.0 - - - - - - -
26/08:00am 15.8 WNW 9 12 - - 0.0 - - - - - - -
26/07:30am 15.6 NW 13 15 - - 0.0 - - - - - - -
26/07:00am 15.4 NW 16 20 - - 0.0 - - - - - - -
26/06:30am 15.2 WNW 15 19 - - 0.0 - - - - - - -
26/06:00am 14.6 WNW 14 20 - - 0.0 - - - - - - -
26/05:57am 14.3 NW 11 18 - - 0.0 - - - - - - -
26/05:30am 12.3 W 4 7 - - 0.0 - - - - - - -
26/05:00am 12.7 NNW 8 11 - - 0.0 - - - - - - -
26/04:30am 12.4 NNW 5 8 - - 0.0 - - - - - - -
26/04:00am 12.6 N 7 8 - - 0.0 - - - - - - -
26/03:30am 13.6 NNW 11 13 - - 0.0 - - - - - - -
26/03:00am 14.6 NW 15 19 - - 0.0 - - - - - - -
26/02:30am 14.4 NW 11 16 - - 0.0 - - - - - - -
26/02:00am 14.7 NW 15 19 - - 0.0 - - - - - - -
26/01:30am 14.7 NW 13 17 - - 0.0 - - - - - - -
26/01:00am 14.8 NW 10 14 - - 0.0 - - - - - - -
26/12:30am 13.5 NNW 7 10 - - 0.0 - - - - - - -
26/12:00am 13.7 NNW 8 9 - - 0.0 - - - - - - -
 
Date/Time
EST
Temp
°C
Wind Pressure Rain since
9am
mm
Weather Cloud Vis
km
Sea
Height
m
Swell
Dir  Spd
kts
Gust
kts
hPa Trend Height
m
Period
s
Dir
25/11:30pm 14.6 NW 10 12 - - 0.0 - - - - - - -
25/11:00pm 14.5 NW 7 10 - - 0.0 - - - - - - -
25/10:30pm 14.4 NW 10 13 - - 0.0 - - - - - - -
25/10:00pm 14.3 NW 8 11 - - 0.0 - - - - - - -
25/09:30pm 14.5 NW 8 11 - - 0.0 - - - - - - -
25/09:00pm 14.8 NW 7 9 - - 0.0 - - - - - - -
25/08:30pm 15.2 NW 7 9 - - 0.0 - - - - - - -
25/08:00pm 15.3 NNW 8 10 - - 0.0 - - - - - - -
25/07:30pm 15.5 NW 9 10 - - 0.0 - - - - - - -
25/07:00pm 15.4 NNW 8 9 - - 0.0 - - - - - - -
25/06:30pm 16.1 NNW 7 10 - - 0.0 - - - - - - -
25/06:00pm 16.7 NNW 7 9 - - 0.0 - - - - - - -
25/05:30pm 17.0 NNW 6 7 - - 0.0 - - - - - - -
25/05:00pm 17.9 NNW 7 10 - - 0.0 - - - - - - -
25/04:30pm 18.9 NW 9 12 - - 0.0 - - - - - - -
25/04:00pm 19.3 NW 10 14 - - 0.0 - - - - - - -
25/03:30pm 19.5 NNW 9 15 - - 0.0 - - - - - - -
25/03:00pm 19.0 NW 11 15 - - 0.0 - - - - - - -
25/02:30pm 19.1 NNW 9 13 - - 0.0 - - - - - - -
25/02:00pm 19.1 NNW 9 15 - - 0.0 - - - - - - -
25/01:30pm 19.6 WNW 9 13 - - 0.0 - - - - - - -
25/01:00pm 19.6 W 9 15 - - 0.0 - - - - - - -
25/12:30pm 19.0 WNW 9 14 - - 0.0 - - - - - - -
25/12:00pm 19.0 WNW 7 10 - - 0.0 - - - - - - -
25/11:30am 17.8 WNW 9 13 - - 0.0 - - - - - - -
25/11:00am 17.6 WNW 10 13 - - 0.0 - - - - - - -
25/10:30am 16.6 WNW 10 13 - - 0.0 - - - - - - -
25/10:00am 14.9 NW 11 14 - - 0.0 - - - - - - -
25/09:30am 13.5 WNW 11 14 - - 0.0 - - - - - - -
25/09:00am 12.9 WNW 11 14 - - 0.0 - - - - - - -
25/08:30am 11.6 NW 9 12 - - 0.0 - - - - - - -
25/08:00am 10.4 NW 8 10 - - 0.0 - - - - - - -
25/07:30am 9.4 NW 7 9 - - 0.0 - - - - - - -
25/07:00am 9.0 NW 7 9 - - 0.0 - - - - - - -
25/06:30am 9.1 WNW 7 9 - - 0.0 - - - - - - -
25/06:00am 9.1 WNW 7 8 - - 0.0 - - - - - - -
25/05:30am 9.6 WNW 7 8 - - 0.0 - - - - - - -
25/05:00am 9.6 WNW 5 7 - - 0.0 - - - - - - -
25/04:30am 9.4 WNW 6 8 - - 0.0 - - - - - - -
25/04:00am 9.6 WNW 8 9 - - 0.0 - - - - - - -
25/03:30am 9.7 WNW 7 8 - - 0.0 - - - - - - -
25/03:00am 10.0 WNW 5 7 - - 0.0 - - - - - - -
25/02:30am 9.9 WNW 6 7 - - 0.0 - - - - - - -
25/02:00am 10.7 WNW 9 11 - - 0.0 - - - - - - -
25/01:30am 11.3 WNW 6 8 - - 0.0 - - - - - - -
25/01:00am 12.2 NW 5 6 - - 0.0 - - - - - - -
25/12:30am 12.9 NW 4 6 - - 0.0 - - - - - - -
25/12:00am 13.4 WNW 5 6 - - 0.0 - - - - - - -
 
Date/Time
EST
Temp
°C
Wind Pressure Rain since
9am
mm
Weather Cloud Vis
km
Sea
Height
m
Swell
Dir  Spd
kts
Gust
kts
hPa Trend Height
m
Period
s
Dir
24/11:30pm 14.0 WNW 3 5 - - 0.0 - - - - - - -
24/11:00pm 14.3 W 3 4 - - 0.0 - - - - - - -
24/10:30pm 15.3 WSW 3 5 - - 0.0 - - - - - - -
24/10:00pm 15.8 SW 6 9 - - 0.0 - - - - - - -
24/09:30pm 14.5 W 5 7 - - 0.0 - - - - - - -
24/09:00pm 14.6 W 4 7 - - 0.0 - - - - - - -
24/08:30pm 16.4 NNW 2 5 - - 0.0 - - - - - - -
24/08:00pm 17.2 SE 4 7 - - 0.0 - - - - - - -
24/07:30pm 17.2 SE 5 5 - - 0.0 - - - - - - -
24/07:00pm 17.2 SSE 3 4 - - 0.0 - - - - - - -
24/06:30pm 17.2 ENE 2 3 - - 0.0 - - - - - - -
24/06:00pm 17.3 ESE 4 5 - - 0.0 - - - - - - -
24/05:30pm 17.4 E 5 7 - - 0.0 - - - - - - -
24/05:00pm 18.3 E 3 4 - - 0.0 - - - - - - -
24/04:30pm 19.0 ESE 3 5 - - 0.0 - - - - - - -
24/04:00pm 19.2 ESE 4 5 - - 0.0 - - - - - - -
24/03:30pm 19.5 SSE 6 7 - - 0.0 - - - - - - -
24/03:00pm 19.6 SSE 5 6 - - 0.0 - - - - - - -
24/02:30pm 21.4 W 10 16 - - 0.0 - - - - - - -
24/02:00pm 21.5 W 9 12 - - 0.0 - - - - - - -
24/01:30pm 21.5 W 8 12 - - 0.0 - - - - - - -
24/01:00pm 20.5 WNW 10 14 - - 0.0 - - - - - - -
24/12:30pm 20.4 WNW 11 15 - - 0.0 - - - - - - -
24/12:00pm 19.4 WNW 14 19 - - 0.0 - - - - - - -
24/11:30am 18.5 WNW 15 22 - - 0.0 - - - - - - -
24/11:00am 17.8 WNW 15 20 - - 0.0 - - - - - - -
24/10:30am 17.4 WNW 12 15 - - 0.0 - - - - - - -
24/10:00am 16.4 WNW 12 18 - - 0.0 - - - - - - -
24/09:30am 15.6 NW 11 14 - - 0.0 - - - - - - -
24/09:00am 14.3 WNW 13 17 - - 0.0 - - - - - - -
24/08:30am 13.6 WNW 14 17 - - 0.0 - - - - - - -
24/08:00am 13.2 WNW 13 16 - - 0.0 - - - - - - -
24/07:30am 12.7 WNW 12 17 - - 0.0 - - - - - - -
24/07:00am 12.0 WNW 9 12 - - 0.0 - - - - - - -
24/06:30am 12.0 NW 8 10 - - 0.0 - - - - - - -
24/06:00am 12.2 WNW 6 9 - - 0.0 - - - - - - -
24/05:30am 12.4 WNW 9 12 - - 0.0 - - - - - - -
24/05:00am 12.6 WNW 8 12 - - 0.0 - - - - - - -
24/04:30am 12.9 WNW 10 14 - - 0.0 - - - - - - -
24/04:00am 13.7 WNW 10 14 - - 0.0 - - - - - - -
24/03:30am 14.0 WNW 12 18 - - 0.0 - - - - - - -
24/03:00am 14.2 WNW 17 22 - - 0.0 - - - - - - -
24/02:30am 14.6 WNW 18 23 - - 0.0 - - - - - - -
24/02:00am 14.6 NW 19 26 - - 0.0 - - - - - - -
24/01:30am 14.8 NW 23 29 - - 0.0 - - - - - - -
24/01:00am 15.0 NW 21 28 - - 0.0 - - - - - - -
24/12:30am 15.2 NW 19 26 - - 0.0 - - - - - - -
24/12:00am 15.3 NW 17 24 - - 0.0 - - - - - - -
 
Date/Time
EST
Temp
°C
Wind Pressure Rain since
9am
mm
Weather Cloud Vis
km
Sea
Height
m
Swell
Dir  Spd
kts
Gust
kts
hPa Trend Height
m
Period
s
Dir
23/11:30pm 15.5 WNW 18 25 - - 0.0 - - - - - - -
23/11:00pm 15.4 WNW 15 21 - - 0.0 - - - - - - -
23/10:30pm 15.3 WNW 15 20 - - 0.0 - - - - - - -
23/10:00pm 15.3 NW 15 20 - - 0.0 - - - - - - -
23/09:30pm 15.4 NW 14 18 - - 0.0 - - - - - - -
23/09:00pm 15.6 NW 16 22 - - 0.0 - - - - - - -
23/08:30pm 15.3 NW 14 19 - - 0.0 - - - - - - -
23/08:00pm 15.9 NW 14 19 - - 0.0 - - - - - - -
23/07:30pm 16.3 NW 14 17 - - 0.0 - - - - - - -
23/07:00pm 16.6 NW 17 21 - - 0.0 - - - - - - -
23/06:30pm 17.1 NW 17 23 - - 0.0 - - - - - - -
23/06:00pm 17.4 NW 19 24 - - 0.0 - - - - - - -
23/05:30pm 17.7 NW 17 21 - - 0.0 - - - - - - -
23/05:00pm 18.4 NW 11 16 - - 0.0 - - - - - - -

Other Formats:

Comma delimited format used in spreadsheet applications
http://www.bom.gov.au/fwo/IDN60701/IDN60701.94774.axf

JavaScript Object Notation format (JSON) in row-major order
http://www.bom.gov.au/fwo/IDN60701/IDN60701.94774.json